Time;durP1;ratioP1;P1;durP2;ratioP2;P2;SDS_P1;SDS_P2;PMS_P1;PMS_P2;Temp;Humidity;BMP_temperature;BMP_pressure;BME280_temperature;BME280_humidity;BME280_pressure;Samples;Min_cycle;Max_cycle;Signal;HPM_P1;HPM_P2
2023/12/08 00:02:07;;;;;;;;;39.00;28.33;;;;;-143.90;100.00;76915.41;4926127;28;101640;-75
2023/12/08 00:04:34;;;;;;;;;38.67;26.33;;;;;-143.90;100.00;76925.75;4929933;28;101805;-75
2023/12/08 00:07:01;;;;;;;;;33.00;26.67;;;;;-143.90;100.00;76929.91;4931095;28;103368;-75
2023/12/08 00:09:27;;;;;;;;;26.67;23.33;;;;;-143.90;100.00;76929.91;4933192;28;102542;-76
2023/12/08 00:11:54;;;;;;;;;29.67;25.33;;;;;-143.90;100.00;76929.91;4931865;28;102342;-74
2023/12/08 00:14:21;;;;;;;;;49.33;37.33;;;;;-143.90;100.00;76931.97;4935133;28;104716;-74
2023/12/08 00:16:47;;;;;;;;;38.33;25.33;;;;;-143.90;100.00;76938.16;4930550;28;103501;-76
2023/12/08 00:19:14;;;;;;;;;42.33;36.67;;;;;-143.90;100.00;76942.31;4931993;28;101726;-75
2023/12/08 00:21:41;;;;;;;;;52.00;38.33;;;;;-143.90;100.00;76942.31;4931444;28;101515;-75
2023/12/08 00:24:07;;;;;;;;;34.67;31.00;;;;;-143.90;100.00;76938.16;4932590;28;101726;-75
2023/12/08 00:26:35;;;;;;;;;44.67;31.00;;;;;-143.90;100.00;76942.31;4931879;28;102942;-75
2023/12/08 00:29:02;;;;;;;;;35.67;28.67;;;;;-143.90;100.00;76946.44;4931799;28;101885;-75
2023/12/08 00:31:31;;;;;;;;;14.67;9.33;;;;;-143.90;100.00;76934.03;4931764;28;101536;-75
2023/12/08 00:33:58;;;;;;;;;37.00;27.00;;;;;-143.90;100.00;76931.97;4930121;28;102041;-76
2023/12/08 00:36:24;;;;;;;;;38.33;33.00;;;;;-143.90;100.00;76929.91;4930927;28;103374;-76
2023/12/08 00:38:51;;;;;;;;;22.00;17.67;;;;;-143.90;100.00;76929.91;4933801;28;102044;-75
2023/12/08 00:41:18;;;;;;;;;32.33;28.67;;;;;-143.90;100.00;76934.03;4931123;28;102121;-75
2023/12/08 00:43:44;;;;;;;;;45.33;35.67;;;;;-143.90;100.00;76934.03;4930694;28;101797;-75
2023/12/08 00:46:11;;;;;;;;;29.00;26.00;;;;;-143.90;100.00;76929.91;4930935;28;103630;-76
2023/12/08 00:48:37;;;;;;;;;25.00;21.33;;;;;-143.90;100.00;76931.97;4932225;28;102048;-75
2023/12/08 00:51:04;;;;;;;;;30.67;25.67;;;;;-143.90;100.00;76923.69;4932065;28;101689;-75
2023/12/08 00:53:31;;;;;;;;;40.33;31.00;;;;;-143.90;100.00;76923.69;4931456;28;101869;-76
2023/12/08 00:55:57;;;;;;;;;42.67;39.33;;;;;-143.90;100.00;76934.03;4930796;28;103537;-75
2023/12/08 00:58:24;;;;;;;;;47.67;39.00;;;;;-143.90;100.00;76948.50;4932499;28;101981;-75
2023/12/08 01:00:51;;;;;;;;;37.67;27.00;;;;;-143.90;100.00;76950.56;4929440;28;101612;-76
2023/12/08 01:03:17;;;;;;;;;33.33;27.67;;;;;-143.90;100.00;76948.50;4929087;28;101930;-76
2023/12/08 01:05:44;;;;;;;;;38.67;30.33;;;;;-143.90;100.00;76942.31;4929253;28;103307;-76
2023/12/08 01:08:11;;;;;;;;;36.33;30.67;;;;;-143.90;100.00;76938.16;4931990;28;101933;-76
2023/12/08 01:10:37;;;;;;;;;39.33;31.33;;;;;-143.90;100.00;76950.56;4930730;28;101846;-75
2023/12/08 01:13:04;;;;;;;;;42.00;36.00;;;;;-143.90;100.00;76952.66;4934384;28;101611;-77
2023/12/08 01:15:33;;;;;;;;;36.00;27.00;;;;;-143.90;100.00;76948.50;4931716;28;103705;-76
2023/12/08 01:18:00;;;;;;;;;31.33;24.33;;;;;-143.90;100.00;76940.25;4945831;28;103187;-76
2023/12/08 01:20:27;;;;;;;;;39.00;32.33;;;;;-143.90;100.00;76938.16;4932087;28;101450;-76
2023/12/08 01:22:54;;;;;;;;;38.00;32.00;;;;;-143.90;100.00;76931.97;4932785;28;101970;-76
2023/12/08 01:25:21;;;;;;;;;59.00;43.67;;;;;-143.90;100.00;76944.38;4932794;28;108113;-77
2023/12/08 01:27:47;;;;;;;;;40.33;31.33;;;;;-143.90;100.00;76946.44;4930182;28;102002;-77
2023/12/08 01:30:14;;;;;;;;;36.67;27.00;;;;;-143.90;100.00;76946.44;4931578;28;101891;-77
2023/12/08 01:32:40;;;;;;;;;43.67;37.33;;;;;-143.90;100.00;76954.72;4929633;28;101941;-77
2023/12/08 01:35:07;;;;;;;;;34.67;30.67;;;;;-143.90;100.00;76952.66;4929367;28;103378;-76
2023/12/08 01:37:34;;;;;;;;;43.00;30.67;;;;;-143.90;100.00;76942.31;4929112;28;101878;-76
2023/12/08 01:40:00;;;;;;;;;40.67;37.33;;;;;-143.90;100.00;76942.31;4927590;28;102882;-76
2023/12/08 01:42:27;;;;;;;;;30.00;24.00;;;;;-143.90;100.00;76936.09;4929904;28;101826;-76
2023/12/08 01:44:54;;;;;;;;;21.33;20.33;;;;;-143.90;100.00;76938.16;4928486;28;103354;-76
2023/12/08 01:47:21;;;;;;;;;34.00;27.00;;;;;-143.90;100.00;76931.97;4930281;28;102840;-77
2023/12/08 01:49:49;;;;;;;;;29.00;27.00;;;;;-143.90;100.00;76925.75;4929293;28;101691;-77
2023/12/08 01:52:21;;;;;;;;;27.33;20.33;;;;;-143.90;100.00;76925.75;4929992;28;102276;-76
2023/12/08 01:54:59;;;;;;;;;35.33;29.33;;;;;-143.90;100.00;76925.75;4929179;28;111636;-77
2023/12/08 01:57:26;;;;;;;;;29.33;24.00;;;;;-143.90;100.00;76919.56;4927100;28;101861;-76
2023/12/08 01:59:54;;;;;;;;;25.67;20.33;;;;;-143.90;100.00;76925.75;4929489;28;101773;-75
2023/12/08 02:02:22;;;;;;;;;21.67;20.33;;;;;-143.90;100.00;76936.09;4928405;28;102069;-77
2023/12/08 02:04:51;;;;;;;;;24.33;20.00;;;;;-143.90;100.00;76936.09;4925061;28;108338;-77
2023/12/08 02:07:17;;;;;;;;;21.33;19.33;;;;;-143.90;100.00;76934.03;4928626;28;102132;-77
2023/12/08 02:09:44;;;;;;;;;21.00;18.33;;;;;-143.90;100.00;76936.09;4930297;28;101478;-77
2023/12/08 02:12:11;;;;;;;;;21.00;18.00;;;;;-143.90;100.00;76929.91;4927106;28;101626;-77
2023/12/08 02:14:38;;;;;;;;;27.00;18.00;;;;;-143.90;100.00;76942.31;4927905;28;106133;-76
2023/12/08 02:17:21;;;;;;;;;25.67;19.67;;;;;-143.90;100.00;76940.25;4929347;28;101831;-76
2023/12/08 02:19:48;;;;;;;;;24.67;23.00;;;;;-143.90;100.00;76940.25;4926450;28;101738;-77
2023/12/08 02:22:16;;;;;;;;;63.67;47.33;;;;;-143.90;100.00;76950.56;4930408;28;101828;-77
2023/12/08 02:24:43;;;;;;;;;64.00;47.67;;;;;-143.90;100.00;76942.31;4928516;28;103372;-77
2023/12/08 02:27:11;;;;;;;;;74.00;54.75;;;;;-143.90;100.00;76938.16;4929363;28;101898;-76
2023/12/08 02:29:38;;;;;;;;;74.75;54.00;;;;;-143.90;100.00;76942.31;4927364;28;101593;-77
2023/12/08 02:32:13;;;;;;;;;75.50;57.75;;;;;-143.90;100.00;76958.84;4929966;28;102111;-77
2023/12/08 02:34:42;;;;;;;;;75.25;54.25;;;;;-143.90;100.00;76954.72;4925922;28;103554;-77
2023/12/08 02:37:09;;;;;;;;;82.50;59.00;;;;;-143.90;100.00;76956.78;4929419;28;103612;-77
2023/12/08 02:39:37;;;;;;;;;93.00;67.75;;;;;-143.90;100.00;76963.00;4927861;28;101894;-77
2023/12/08 02:42:04;;;;;;;;;92.25;68.00;;;;;-143.90;100.00;76963.00;4929366;28;101656;-75
2023/12/08 02:44:31;;;;;;;;;86.25;63.50;;;;;-143.90;100.00;76973.31;4928705;28;103520;-76
2023/12/08 02:46:59;;;;;;;;;90.75;65.50;;;;;-143.90;100.00;76975.41;4928876;28;102780;-76
2023/12/08 02:49:25;;;;;;;;;78.75;55.50;;;;;-143.90;100.00;76977.47;4932181;28;102037;-77
2023/12/08 02:51:52;;;;;;;;;76.00;55.25;;;;;-143.90;100.00;76981.59;4931501;28;101875;-77
2023/12/08 02:54:19;;;;;;;;;76.50;56.75;;;;;-143.90;100.00;76983.66;4931160;28;103384;-76
2023/12/08 02:56:45;;;;;;;;;73.50;56.00;;;;;-143.90;100.00;76981.59;4927988;28;105584;-77
2023/12/08 02:59:12;;;;;;;;;72.25;53.75;;;;;-143.90;100.00;76979.53;4930489;28;102542;-77
2023/12/08 03:01:39;;;;;;;;;84.25;60.75;;;;;-143.90;100.00;76983.66;4934999;28;101907;-75
2023/12/08 03:04:06;;;;;;;;;73.50;54.75;;;;;-143.90;100.00;76977.47;4929334;28;103385;-75
2023/12/08 03:06:32;;;;;;;;;71.50;53.25;;;;;-143.90;100.00;76975.41;4930495;28;101959;-75
2023/12/08 03:08:59;;;;;;;;;106.25;72.00;;;;;-143.90;100.00;76985.75;4929415;28;101605;-75
2023/12/08 03:11:26;;;;;;;;;110.00;79.50;;;;;-143.90;100.00;76996.09;4930874;28;101715;-74
2023/12/08 03:13:53;;;;;;;;;102.75;69.50;;;;;-143.90;100.00;76998.16;4931109;28;103365;-76
2023/12/08 03:16:19;;;;;;;;;107.25;80.25;;;;;-143.90;100.00;77004.34;4929429;28;102699;-76
2023/12/08 03:18:46;;;;;;;;;123.75;85.50;;;;;-143.90;100.00;77014.69;4927950;28;101892;-76
2023/12/08 03:21:23;;;;;;;;;120.75;79.50;;;;;-143.90;100.00;77016.75;4929988;28;101562;-75
2023/12/08 03:23:50;;;;;;;;;108.50;76.00;;;;;-143.90;100.00;77016.75;4928629;28;103356;-76
2023/12/08 03:26:18;;;;;;;;;103.75;77.00;;;;;-143.90;100.00;77020.91;4930067;28;102407;-75
2023/12/08 03:28:45;;;;;;;;;113.00;82.25;;;;;-143.90;100.00;77025.03;4926197;28;101930;-74
2023/12/08 03:31:22;;;;;;;;;112.25;78.75;;;;;-143.90;100.00;77029.19;4929325;28;101921;-75
2023/12/08 03:33:49;;;;;;;;;108.75;77.50;;;;;-143.90;100.00;77016.75;4925914;28;103520;-75
2023/12/08 03:36:16;;;;;;;;;102.00;71.75;;;;;-143.90;100.00;77022.97;4929584;28;101861;-76
2023/12/08 03:38:42;;;;;;;;;111.00;74.50;;;;;-143.90;100.00;77018.84;4928621;28;101692;-75
2023/12/08 03:41:12;;;;;;;;;111.50;79.25;;;;;-143.90;100.00;77025.03;4931467;28;102132;-76
2023/12/08 03:43:39;;;;;;;;;108.50;78.25;;;;;-143.90;100.00;77022.97;4929315;28;103362;-76
2023/12/08 03:46:07;;;;;;;;;111.50;79.00;;;;;-143.90;100.00;77025.03;4932211;28;102761;-76
2023/12/08 03:48:37;;;;;;;;;113.50;80.75;;;;;-143.90;100.00;77033.31;4931279;28;101551;-75
2023/12/08 03:51:07;;;;;;;;;121.25;90.25;;;;;-143.90;100.00;77033.31;4932753;28;101699;-76
2023/12/08 03:53:33;;;;;;;;;120.00;88.50;;;;;-143.90;100.00;77033.31;4930450;28;103514;-75
2023/12/08 03:56:00;;;;;;;;;125.00;87.00;;;;;-143.90;100.00;77033.31;4931698;28;101759;-76
2023/12/08 03:58:28;;;;;;;;;123.50;93.25;;;;;-143.90;100.00;77033.31;4932703;28;102572;-75
2023/12/08 04:00:55;;;;;;;;;116.50;86.00;;;;;-143.90;100.00;77025.03;4934586;28;102813;-77
2023/12/08 04:03:22;;;;;;;;;110.50;74.75;;;;;-143.90;100.00;77016.75;4929287;28;108201;-76
2023/12/08 04:05:49;;;;;;;;;110.25;81.25;;;;;-143.90;100.00;77008.50;4932364;28;101984;-75
2023/12/08 04:08:16;;;;;;;;;126.50;90.00;;;;;-143.90;100.00;77008.50;4931088;28;101997;-76
2023/12/08 04:10:43;;;;;;;;;111.25;87.00;;;;;-143.90;100.00;77008.50;4934406;28;101909;-77
2023/12/08 04:13:09;;;;;;;;;114.25;75.50;;;;;-143.90;100.00;77006.41;4929934;28;103436;-75
2023/12/08 04:15:36;;;;;;;;;106.50;78.25;;;;;-143.90;100.00;77006.41;4932374;28;109354;-75
2023/12/08 04:18:03;;;;;;;;;110.25;83.25;;;;;-143.90;100.00;77002.28;4932685;28;101581;-75
2023/12/08 04:20:31;;;;;;;;;115.75;79.75;;;;;-143.90;100.00;76998.16;4932554;28;101689;-76
2023/12/08 04:22:57;;;;;;;;;125.75;82.50;;;;;-143.90;100.00;77002.28;4934927;28;103837;-76
2023/12/08 04:25:24;;;;;;;;;104.25;74.00;;;;;-143.90;100.00;77002.28;4933614;28;102789;-77
2023/12/08 04:27:51;;;;;;;;;103.25;70.50;;;;;-143.90;100.00;77000.22;4931187;28;102515;-77
2023/12/08 04:30:17;;;;;;;;;114.00;87.25;;;;;-143.90;100.00;77002.28;4932425;28;102348;-77
2023/12/08 04:32:44;;;;;;;;;122.25;86.75;;;;;-143.90;100.00;76996.09;4931147;28;103342;-77
2023/12/08 04:35:10;;;;;;;;;118.00;92.25;;;;;-143.90;100.00;77000.22;4931379;28;102135;-77
2023/12/08 04:37:37;;;;;;;;;118.00;87.00;;;;;-143.90;100.00;77000.22;4931290;28;101591;-77
2023/12/08 04:40:04;;;;;;;;;111.25;83.75;;;;;-143.90;100.00;77004.34;4932459;28;101619;-77
2023/12/08 04:42:31;;;;;;;;;124.00;85.50;;;;;-143.90;100.00;76998.16;4930455;28;107088;-77
2023/12/08 04:44:58;;;;;;;;;122.00;77.25;;;;;-143.90;100.00;76996.09;4932271;28;101878;-74
2023/12/08 04:47:25;;;;;;;;;119.75;81.00;;;;;-143.90;100.00;76996.09;4934528;28;101535;-75
2023/12/08 04:49:52;;;;;;;;;113.00;83.00;;;;;-143.90;100.00;76998.16;4931316;28;102735;-77
2023/12/08 04:52:18;;;;;;;;;114.25;87.00;;;;;-143.90;100.00;77000.22;4927466;28;103430;-77
2023/12/08 04:54:45;;;;;;;;;109.25;78.00;;;;;-143.90;100.00;77000.22;4930258;28;101758;-77
2023/12/08 04:57:12;;;;;;;;;106.75;82.25;;;;;-143.90;100.00;76996.09;4932257;28;102863;-77
2023/12/08 04:59:39;;;;;;;;;110.25;77.00;;;;;-143.90;100.00;77002.28;4931711;28;101893;-76
2023/12/08 05:02:05;;;;;;;;;106.25;75.75;;;;;-143.90;100.00;77004.34;4931635;28;103642;-77
2023/12/08 05:04:32;;;;;;;;;106.25;74.50;;;;;-143.90;100.00;77006.41;4932617;28;102041;-77
2023/12/08 05:06:59;;;;;;;;;108.00;76.25;;;;;-143.90;100.00;77006.41;4930655;28;101914;-76
2023/12/08 05:09:25;;;;;;;;;104.25;76.75;;;;;-143.90;100.00;77010.56;4933837;28;103013;-77
2023/12/08 05:11:53;;;;;;;;;111.00;73.50;;;;;-143.90;100.00;77016.75;4931665;28;108101;-76
2023/12/08 05:14:20;;;;;;;;;106.00;74.00;;;;;-143.90;100.00;77020.91;4931194;28;102276;-76
2023/12/08 05:16:47;;;;;;;;;106.00;75.75;;;;;-143.90;100.00;77020.91;4931820;28;102774;-77
2023/12/08 05:19:13;;;;;;;;;101.75;75.50;;;;;-143.90;100.00;77022.97;4933787;28;101784;-77
2023/12/08 05:21:40;;;;;;;;;89.00;67.00;;;;;-143.90;100.00;77010.56;4928129;28;103135;-76
2023/12/08 05:24:07;;;;;;;;;38.00;19.75;;;;;-143.90;100.00;77004.34;4932207;28;103563;-77
2023/12/08 05:26:34;;;;;;;;;91.25;61.75;;;;;-143.90;100.00;77002.28;4928708;28;101627;-77
2023/12/08 05:29:00;;;;;;;;;100.50;69.25;;;;;-143.90;100.00;77020.91;4931797;28;101860;-76
2023/12/08 05:31:27;;;;;;;;;110.75;76.50;;;;;-143.90;100.00;77031.25;4930024;28;103709;-75
2023/12/08 05:33:54;;;;;;;;;99.25;67.25;;;;;-143.90;100.00;77027.09;4933204;28;102244;-76
2023/12/08 05:36:21;;;;;;;;;87.25;61.00;;;;;-143.90;100.00;77029.19;4930899;28;101793;-78
2023/12/08 05:38:47;;;;;;;;;89.25;65.00;;;;;-143.90;100.00;77045.72;4933139;28;101607;-78
2023/12/08 05:41:14;;;;;;;;;88.75;58.50;;;;;-143.90;100.00;77041.59;4930879;28;103583;-78
2023/12/08 05:43:41;;;;;;;;;77.00;54.25;;;;;-143.90;100.00;77029.19;4930766;28;102088;-78
2023/12/08 05:46:07;;;;;;;;;51.67;43.67;;;;;-143.90;100.00;77020.91;4927326;28;101899;-78
2023/12/08 05:48:34;;;;;;;;;47.67;39.67;;;;;-143.90;100.00;77008.50;4932338;28;102173;-78
2023/12/08 05:51:01;;;;;;;;;87.25;64.50;;;;;-143.90;100.00;77027.09;4930096;28;103669;-78
2023/12/08 05:53:27;;;;;;;;;129.25;101.25;;;;;-143.90;100.00;77029.19;4928332;28;102303;-75
2023/12/08 05:55:54;;;;;;;;;116.00;87.00;;;;;-143.90;100.00;77037.44;4931544;28;101602;-79
2023/12/08 05:58:24;;;;;;;;;103.50;75.00;;;;;-143.90;100.00;77025.03;4934098;28;102021;-76
2023/12/08 06:00:51;;;;;;;;;99.00;70.25;;;;;-143.90;100.00;77025.03;4929909;28;103340;-77
2023/12/08 06:03:17;;;;;;;;;80.25;63.00;;;;;-143.90;100.00;77010.56;4929800;28;102870;-76
2023/12/08 06:05:45;;;;;;;;;73.75;55.25;;;;;-143.90;100.00;77002.28;4924510;28;101728;-76
2023/12/08 06:08:11;;;;;;;;;67.00;51.25;;;;;-143.90;100.00;77000.22;4930812;28;101617;-76
2023/12/08 06:10:38;;;;;;;;;68.00;53.00;;;;;-143.90;100.00;76991.94;4928312;28;103611;-76
2023/12/08 06:13:05;;;;;;;;;79.25;55.25;;;;;-143.90;100.00;77002.28;4929662;28;101922;-76
2023/12/08 06:15:31;;;;;;;;;76.00;51.00;;;;;-143.90;100.00;76991.94;4930038;28;102122;-76
2023/12/08 06:17:58;;;;;;;;;93.00;66.25;;;;;-143.90;100.00;77010.56;4931593;28;102188;-76
2023/12/08 06:20:25;;;;;;;;;87.25;62.50;;;;;-143.90;100.00;77006.41;4932528;28;103207;-75
2023/12/08 06:22:51;;;;;;;;;90.75;68.00;;;;;-143.90;100.00;77018.84;4929981;28;102193;-76
2023/12/08 06:25:19;;;;;;;;;114.75;88.50;;;;;-143.90;100.00;77018.84;4935115;28;101955;-75
2023/12/08 06:27:46;;;;;;;;;89.75;66.00;;;;;-143.90;100.00;77016.75;4930681;28;101508;-76
2023/12/08 06:30:13;;;;;;;;;74.75;58.00;;;;;-143.90;100.00;76996.09;4930281;28;103349;-76
2023/12/08 06:32:39;;;;;;;;;74.00;55.75;;;;;-143.90;100.00;76987.81;4929722;28;101990;-75
2023/12/08 06:35:06;;;;;;;;;73.75;55.00;;;;;-143.90;100.00;76987.81;4929156;28;102000;-75
2023/12/08 06:37:33;;;;;;;;;62.25;49.00;;;;;-143.90;100.00;76985.75;4929403;28;102015;-77
2023/12/08 06:40:00;;;;;;;;;80.75;61.00;;;;;-143.90;100.00;76996.09;4928869;28;103473;-75
2023/12/08 06:42:27;;;;;;;;;81.25;58.25;;;;;-143.90;100.00;76985.75;4927902;28;102171;-76
2023/12/08 06:44:54;;;;;;;;;114.50;83.75;;;;;-143.90;100.00;77002.28;4928464;28;101655;-76
2023/12/08 06:47:20;;;;;;;;;96.00;67.00;;;;;-143.90;100.00;77016.75;4929899;28;101960;-74
2023/12/08 06:49:47;;;;;;;;;99.25;73.00;;;;;-143.90;100.00;77018.84;4926770;28;103730;-75
2023/12/08 06:52:14;;;;;;;;;90.75;64.25;;;;;-143.90;100.00;77014.69;4924465;28;101665;-75
2023/12/08 06:54:40;;;;;;;;;81.50;58.00;;;;;-143.90;100.00;77022.97;4926959;28;101616;-75
2023/12/08 06:57:08;;;;;;;;;75.50;58.00;;;;;-143.90;100.00;77006.41;4927577;28;101527;-76
2023/12/08 06:59:35;;;;;;;;;63.75;49.00;;;;;-143.90;100.00;76989.88;4925213;28;103365;-76
2023/12/08 07:02:01;;;;;;;;;90.00;62.75;;;;;-143.90;100.00;77004.34;4928144;28;101701;-75
2023/12/08 07:04:28;;;;;;;;;90.00;65.00;;;;;-143.90;100.00;77004.34;4925344;28;102101;-75
2023/12/08 07:06:54;;;;;;;;;89.25;67.00;;;;;-143.90;100.00;77014.69;4932295;28;101729;-74
2023/12/08 07:09:21;;;;;;;;;97.00;68.50;;;;;-143.90;100.00;77041.59;4923907;28;108012;-74
2023/12/08 07:11:48;;;;;;;;;144.75;111.50;;;;;-143.90;100.00;77049.84;4926621;28;102878;-75
2023/12/08 07:14:15;;;;;;;;;108.25;73.75;;;;;-143.90;100.00;77022.97;4925340;28;101643;-76
2023/12/08 07:16:45;;;;;;;;;110.50;77.50;;;;;-143.90;100.00;77008.50;4929735;28;101976;-77
2023/12/08 07:19:11;;;;;;;;;96.75;71.00;;;;;-143.90;100.00;76996.09;4926199;28;103543;-75
2023/12/08 07:21:44;;;;;;;;;87.75;61.75;;;;;-143.90;100.00;76987.81;4934699;28;102349;-75
2023/12/08 07:24:11;;;;;;;;;76.25;57.75;;;;;-143.90;100.00;76983.66;4931532;28;106300;-75
2023/12/08 07:26:38;;;;;;;;;78.75;58.00;;;;;-143.90;100.00;76991.94;4935568;28;102060;-75
2023/12/08 07:29:05;;;;;;;;;96.00;69.50;;;;;-143.90;100.00;76998.16;4932291;28;103463;-75
2023/12/08 07:31:31;;;;;;;;;144.75;101.25;;;;;-143.90;100.00;76996.09;4933946;28;102017;-75
2023/12/08 07:33:58;;;;;;;;;118.00;91.25;;;;;-143.90;100.00;76991.94;4933475;28;101780;-75
2023/12/08 07:36:25;;;;;;;;;105.75;82.75;;;;;-143.90;100.00;76983.66;4936678;28;101914;-76
2023/12/08 07:38:51;;;;;;;;;297.00;222.25;;;;;-143.90;100.00;77004.34;4933327;28;109277;-76
2023/12/08 07:41:18;;;;;;;;;206.00;161.25;;;;;-143.90;100.00;77012.63;4932491;28;102376;-75
2023/12/08 07:43:45;;;;;;;;;225.50;161.75;;;;;-143.90;100.00;77010.56;4931863;28;101771;-75
2023/12/08 07:46:12;;;;;;;;;350.25;275.50;;;;;-143.90;100.00;77000.22;4934650;28;101773;-76
2023/12/08 07:48:38;;;;;;;;;173.50;129.75;;;;;-143.90;100.00;76996.09;4931260;28;103492;-78
2023/12/08 07:51:05;;;;;;;;;171.75;125.75;;;;;-143.90;100.00;77000.22;4929438;28;103584;-77
2023/12/08 07:53:32;;;;;;;;;146.50;106.00;;;;;-143.90;100.00;76998.16;4932810;28;102025;-77
2023/12/08 07:55:59;;;;;;;;;163.00;118.75;;;;;-143.90;100.00;76983.66;4934798;28;101829;-77
2023/12/08 07:58:27;;;;;;;;;162.00;119.50;;;;;-143.90;100.00;76987.81;4931203;28;103419;-74
2023/12/08 08:00:53;;;;;;;;;145.50;110.50;;;;;-143.90;100.00;76991.94;4935785;28;102273;-76
2023/12/08 08:03:20;;;;;;;;;171.25;122.25;;;;;-143.90;100.00;76983.66;4933519;28;101764;-77
2023/12/08 08:05:46;;;;;;;;;179.00;130.50;;;;;-143.90;100.00;76987.81;4932461;28;102380;-71
2023/12/08 08:08:13;;;;;;;;;162.75;116.00;;;;;-143.90;100.00;76987.81;4932598;28;103400;-68
2023/12/08 08:10:40;;;;;;;;;135.75;105.00;;;;;-143.90;100.00;76991.94;4933716;28;101920;-68
2023/12/08 08:13:06;;;;;;;;;161.00;121.25;;;;;-143.90;100.00;76985.75;4931300;28;101575;-70
2023/12/08 08:15:33;;;;;;;;;118.75;91.00;;;;;-143.90;100.00;76981.59;4933480;28;101495;-76
2023/12/08 08:17:59;;;;;;;;;135.25;99.00;;;;;-143.90;100.00;76973.31;4932407;28;103579;-78
2023/12/08 08:20:27;;;;;;;;;145.50;115.75;;;;;-143.90;100.00;76983.66;4930818;28;101907;-74
2023/12/08 08:22:55;;;;;;;;;139.00;107.50;;;;;-143.90;100.00;76975.41;4933716;28;101579;-70
2023/12/08 08:25:22;;;;;;;;;103.75;80.50;;;;;-143.90;100.00;76971.25;4932268;28;102016;-70
2023/12/08 08:27:53;;;;;;;;;104.75;77.50;;;;;-143.90;100.00;76963.00;4934360;28;103731;-70
2023/12/08 08:30:20;;;;;;;;;112.50;90.50;;;;;-143.90;100.00;76971.25;4933454;28;101920;-71
2023/12/08 08:32:47;;;;;;;;;106.25;79.25;;;;;-143.90;100.00;76931.97;4931917;28;102729;-68
2023/12/08 08:35:14;;;;;;;;;99.75;71.00;;;;;-143.90;100.00;76921.63;4933405;28;101679;-75
2023/12/08 08:37:41;;;;;;;;;85.25;62.50;;;;;-143.90;100.00;76890.59;4931104;28;103350;-74
2023/12/08 08:40:09;;;;;;;;;71.25;52.75;;;;;-143.90;100.00;76857.50;4931266;28;102207;-74
2023/12/08 08:42:36;;;;;;;;;62.67;47.67;;;;;-143.90;100.00;76830.63;4931151;28;101780;-75
2023/12/08 08:45:05;;;;;;;;;55.33;41.00;;;;;-143.90;100.00;76809.94;4930626;28;101872;-74
2023/12/08 08:47:32;;;;;;;;;61.67;45.00;;;;;-143.90;100.00;76799.59;4931822;28;103362;-74
2023/12/08 08:49:59;;;;;;;;;44.67;34.33;;;;;-143.90;100.00;76801.66;4930185;28;102240;-74
2023/12/08 08:52:26;;;;;;;;;63.00;42.67;;;;;-143.90;100.00;76805.78;4932621;28;101775;-75
2023/12/08 08:54:53;;;;;;;;;52.33;41.67;;;;;-143.90;100.00;76793.38;4934147;28;102017;-74
2023/12/08 08:57:19;;;;;;;;;68.67;53.00;;;;;-143.90;100.00;76814.06;4929379;28;103492;-74
2023/12/08 08:59:46;;;;;;;;;80.25;58.75;;;;;-143.90;100.00;76824.41;4934879;28;102114;-75
2023/12/08 09:02:12;;;;;;;;;61.67;48.33;;;;;-143.90;100.00;76830.63;4932034;28;103115;-75
2023/12/08 09:04:39;;;;;;;;;69.00;50.00;;;;;-143.90;100.00;76797.53;4934412;28;101790;-73
2023/12/08 09:07:06;;;;;;;;;55.00;38.67;;;;;-143.90;100.00;76774.78;4928600;28;103743;-75
2023/12/08 09:09:32;;;;;;;;;71.33;50.00;;;;;-143.90;100.00;76814.06;4932362;28;102051;-74
2023/12/08 09:11:59;;;;;;;;;73.00;50.67;;;;;-143.90;100.00;76797.53;4931241;28;101837;-74
2023/12/08 09:14:27;;;;;;;;;66.00;51.33;;;;;-143.90;100.00;76843.03;4933754;28;101851;-75
2023/12/08 09:16:54;;;;;;;;;74.33;54.67;;;;;-143.90;100.00;76874.06;4930747;28;108742;-75
2023/12/08 09:19:21;;;;;;;;;72.00;55.00;;;;;-143.90;100.00;76874.06;4930738;28;101637;-75
2023/12/08 09:21:48;;;;;;;;;68.00;53.75;;;;;-143.90;100.00;76911.28;4931887;28;101626;-76
2023/12/08 09:24:20;;;;;;;;;75.50;51.25;;;;;-143.90;100.00;76925.75;4932749;28;101837;-75
2023/12/08 09:26:47;;;;;;;;;67.50;50.00;;;;;-143.90;100.00;76925.75;4931299;28;103362;-74
2023/12/08 09:29:14;;;;;;;;;73.00;54.00;;;;;-143.90;100.00;76913.34;4932215;28;102392;-75
2023/12/08 09:31:41;;;;;;;;;62.00;40.67;;;;;-143.90;100.00;76921.63;4928928;28;102729;-75
2023/12/08 09:34:07;;;;;;;;;76.00;58.75;;;;;-143.90;100.00;76913.34;4946148;28;101604;-75
2023/12/08 09:36:35;;;;;;;;;64.33;49.00;;;;;-143.90;100.00;76878.19;4932043;28;103557;-75
2023/12/08 09:39:04;;;;;;;;;65.33;46.33;;;;;-143.90;100.00;76861.63;4930699;28;101634;-74
2023/12/08 09:41:31;;;;;;;;;78.75;58.75;;;;;-143.90;100.00;76886.47;4930250;28;102064;-75
2023/12/08 09:44:12;;;;;;;;;84.75;61.00;;;;;-143.90;100.00;76900.94;4932459;28;101591;-75
2023/12/08 09:46:43;;;;;;;;;72.00;51.33;;;;;-143.90;100.00;76863.72;4930568;28;103534;-76
2023/12/08 09:49:28;;;;;;;;;81.50;60.25;;;;;-143.90;100.00;76859.56;4911997;28;103057;-76
2023/12/08 09:51:56;;;;;;;;;80.00;58.00;;;;;-143.90;100.00;76836.81;4896864;28;102818;-73
2023/12/08 09:54:23;;;;;;;;;69.67;50.00;;;;;-143.90;100.00;76803.72;4896169;28;102929;-75
2023/12/08 09:56:54;;;;;;;;;57.67;48.00;;;;;-143.90;100.00;76789.25;4894028;28;103493;-74
2023/12/08 09:59:27;;;;;;;;;57.00;43.33;;;;;-143.90;100.00;76768.56;4904536;28;103980;-74
2023/12/08 10:01:54;;;;;;;;;43.67;33.67;;;;;-143.90;100.00;76758.22;4895375;28;103012;-71
2023/12/08 10:04:22;;;;;;;;;65.33;48.67;;;;;-143.90;100.00;76791.31;4924695;28;102380;-74
2023/12/08 10:06:50;;;;;;;;;64.33;48.67;;;;;-143.90;100.00;76783.03;4921913;28;103530;-74
2023/12/08 10:09:19;;;;;;;;;82.50;64.00;;;;;-143.90;100.00;76845.09;4883800;28;103061;-71
2023/12/08 10:11:46;;;;;;;;;66.33;47.00;;;;;-143.90;100.00;76828.53;4882492;28;102812;-72
2023/12/08 10:14:14;;;;;;;;;75.25;54.50;;;;;-143.90;100.00;76838.88;4885218;28;102714;-72
2023/12/08 10:16:43;;;;;;;;;78.50;56.25;;;;;-143.90;100.00;76865.78;4883034;28;103986;-72
2023/12/08 10:19:10;;;;;;;;;81.00;58.00;;;;;-143.90;100.00;76851.31;4921139;28;102155;-71
2023/12/08 10:21:37;;;;;;;;;81.50;59.75;;;;;-143.90;100.00;76843.03;4882074;28;102783;-71
2023/12/08 10:24:04;;;;;;;;;77.25;58.00;;;;;-143.90;100.00;76824.41;4882647;28;102791;-72
2023/12/08 10:26:32;;;;;;;;;68.67;50.67;;;;;-143.90;100.00;76799.59;4881623;28;104358;-72
2023/12/08 10:29:00;;;;;;;;;57.67;44.00;;;;;-143.90;100.00;76735.47;4880455;28;102860;-72
2023/12/08 10:31:27;;;;;;;;;35.33;28.33;;;;;-143.90;100.00;76702.38;4882196;28;102752;-70
2023/12/08 10:33:55;;;;;;;;;38.00;25.67;;;;;-143.90;100.00;76652.75;4888880;28;103193;-71
2023/12/08 10:36:22;;;;;;;;;38.00;28.33;;;;;-143.90;100.00;76621.72;4883290;28;109242;-70
2023/12/08 10:38:50;;;;;;;;;37.67;30.33;;;;;-143.90;100.00;76588.63;4880826;28;103055;-71
2023/12/08 10:41:16;;;;;;;;;60.67;47.67;;;;;-143.90;100.00;76658.97;4881784;28;103006;-71
2023/12/08 10:43:45;;;;;;;;;59.33;42.33;;;;;-143.90;100.00;76644.47;4883732;28;102775;-71
2023/12/08 10:46:12;;;;;;;;;65.00;48.33;;;;;-143.90;100.00;76665.16;4881127;28;103679;-70